Time;durP1;ratioP1;P1;durP2;ratioP2;P2;SDS_P1;SDS_P2;PMS_P1;PMS_P2;Temp;Humidity;BMP_temperature;BMP_pressure;BME280_temperature;BME280_humidity;BME280_pressure;Samples;Min_cycle;Max_cycle;Signal;HPM_P1;HPM_P2
2022/06/09 00:01:33;;;;;;;;;;;;;;;26.76;42.50;93795.28;5013609;28;9273;-62
2022/06/09 00:04:22;;;;;;;;;;;;;;;26.75;42.31;93796.56;5006241;28;7211;-63
2022/06/09 00:07:08;;;;;;;;;;;;;;;26.76;42.99;93789.03;5002074;28;7339;-62
2022/06/09 00:09:50;;;;;;;;;;;;;;;26.75;42.13;93793.06;5018619;28;8786;-63
2022/06/09 00:12:27;;;;;;;;;;;;;;;26.75;42.24;93793.06;5005779;28;7132;-62
2022/06/09 00:15:04;;;;;;;;;;;;;;;26.74;42.42;93795.09;5024917;28;10276;-63
2022/06/09 00:17:33;;;;;;;;;;;;;;;26.73;42.52;93801.88;5009945;28;8781;-62
2022/06/09 00:19:59;;;;;;;;;;;;;;;26.73;42.71;93795.63;4997839;28;8725;-62
2022/06/09 00:22:25;;;;;;;;;;;;;;;26.73;42.65;93803.91;5006416;28;9406;-62
2022/06/09 00:24:51;;;;;;;;;;;;;;;26.72;41.72;93813.41;5001402;28;9478;-62
2022/06/09 00:27:18;;;;;;;;;;;;;;;26.71;42.37;93809.16;5005337;28;7432;-62
2022/06/09 00:29:48;;;;;;;;;;;;;;;26.68;42.64;93816.50;5005051;28;7441;-63
2022/06/09 00:32:24;;;;;;;;;;;;;;;26.67;42.30;93822.53;5011525;28;9345;-62
2022/06/09 00:34:59;;;;;;;;;;;;;;;26.64;42.89;93824.31;5029954;28;8226;-62
2022/06/09 00:37:29;;;;;;;;;;;;;;;26.66;43.03;93829.34;5025861;28;9087;-62
2022/06/09 00:40:07;;;;;;;;;;;;;;;26.66;42.06;93834.84;5010187;28;7682;-62
2022/06/09 00:42:36;;;;;;;;;;;;;;;26.67;41.69;93837.06;5008664;28;9097;-63
2022/06/09 00:45:39;;;;;;;;;;;;;;;26.64;42.17;93840.16;5020656;28;9406;-63
2022/06/09 00:48:29;;;;;;;;;;;;;;;26.64;41.96;93843.63;5000666;28;7225;-63
2022/06/09 00:51:32;;;;;;;;;;;;;;;26.63;42.17;93838.66;5004288;28;9325;-63
2022/06/09 00:54:19;;;;;;;;;;;;;;;26.64;41.99;93845.69;5009360;28;7614;-62
2022/06/09 00:57:00;;;;;;;;;;;;;;;26.57;41.84;93840.78;5003697;28;9519;-62
2022/06/09 00:59:45;;;;;;;;;;;;;;;26.58;42.19;93847.78;5022326;28;6956;-63
2022/06/09 01:02:17;;;;;;;;;;;;;;;26.57;42.56;93844.28;4998765;28;9020;-62
2022/06/09 01:04:53;;;;;;;;;;;;;;;26.56;42.04;93839.28;5025222;28;7060;-63
2022/06/09 01:07:35;;;;;;;;;;;;;;;26.56;42.00;93836.53;5021021;28;7381;-62
2022/06/09 01:10:01;;;;;;;;;;;;;;;26.54;42.42;93845.34;5008256;28;9443;-62
2022/06/09 01:12:37;;;;;;;;;;;;;;;26.54;42.79;93845.34;5007011;28;6956;-62
2022/06/09 01:15:16;;;;;;;;;;;;;;;26.53;42.04;93843.13;5007395;28;9607;-63
2022/06/09 01:17:58;;;;;;;;;;;;;;;26.51;41.92;93837.41;5014921;28;9621;-62
2022/06/09 01:20:33;;;;;;;;;;;;;;;26.51;42.04;93842.91;5022311;28;9459;-62
2022/06/09 01:23:45;;;;;;;;;;;;;;;26.51;42.60;93838.13;5030306;28;7048;-62
2022/06/09 01:26:56;;;;;;;;;;;;;;;26.54;42.50;93841.84;5012823;28;7211;-62
2022/06/09 01:33:05;;;;;;;;;;;;;;;26.48;41.78;93849.47;5033313;28;7238;-62
2022/06/09 01:36:09;;;;;;;;;;;;;;;26.50;41.68;93844.19;5006334;28;7205;-62
2022/06/09 01:38:53;;;;;;;;;;;;;;;26.50;41.69;93846.94;4938926;28;6932;-63
2022/06/09 01:41:23;;;;;;;;;;;;;;;26.48;42.65;93852.25;4944696;28;8780;-63
2022/06/09 01:43:54;;;;;;;;;;;;;;;26.46;42.23;93855.53;4931538;28;9495;-63
2022/06/09 01:46:45;;;;;;;;;;;;;;;26.47;42.45;93861.78;4952020;28;6856;-62
2022/06/09 01:49:41;;;;;;;;;;;;;;;26.46;41.67;93861.03;4934422;28;7217;-63
2022/06/09 01:52:09;;;;;;;;;;;;;;;26.45;42.37;93859.56;4900304;29;9556;-63
2022/06/09 01:54:55;;;;;;;;;;;;;;;26.43;42.73;93864.84;4900387;29;9056;-63
2022/06/09 01:57:28;;;;;;;;;;;;;;;26.47;41.95;93864.56;4913356;29;7269;-63
2022/06/09 02:00:25;;;;;;;;;;;;;;;26.45;42.51;93867.81;4886996;29;7355;-62
2022/06/09 02:03:06;;;;;;;;;;;;;;;26.45;41.90;93865.06;4899489;29;9211;-62
2022/06/09 02:05:42;;;;;;;;;;;;;;;26.45;42.16;93865.06;4913242;29;9369;-63
2022/06/09 02:08:23;;;;;;;;;;;;;;;26.44;41.64;93871.88;4913888;29;9089;-63
2022/06/09 02:11:09;;;;;;;;;;;;;;;26.46;41.57;93871.31;4915063;29;7347;-63
2022/06/09 02:13:51;;;;;;;;;;;;;;;26.44;41.91;93873.88;4963242;28;9151;-63
2022/06/09 02:16:24;;;;;;;;;;;;;;;26.44;42.01;93873.88;4972073;28;7285;-63
2022/06/09 02:18:53;;;;;;;;;;;;;;;26.44;42.00;93879.38;4942931;28;7144;-63
2022/06/09 02:21:22;;;;;;;;;;;;;;;26.43;42.44;93889.66;4954490;28;7190;-63
2022/06/09 02:23:48;;;;;;;;;;;;;;;26.45;42.13;93892.63;4973187;28;9371;-63
2022/06/09 02:26:27;;;;;;;;;;;;;;;26.45;41.82;93895.41;4970538;28;7591;-62
2022/06/09 02:29:03;;;;;;;;;;;;;;;26.46;41.26;93899.66;4996813;28;8863;-63
2022/06/09 02:31:47;;;;;;;;;;;;;;;26.46;41.76;93904.41;5008152;28;8457;-63
2022/06/09 02:34:45;;;;;;;;;;;;;;;26.44;41.24;93904.97;5011583;28;8083;-62
2022/06/09 02:37:12;;;;;;;;;;;;;;;26.45;42.05;93913.94;4945147;28;8784;-62
2022/06/09 02:39:39;;;;;;;;;;;;;;;26.43;41.62;93908.22;4929744;28;7790;-62
2022/06/09 02:42:07;;;;;;;;;;;;;;;26.42;41.78;93910.25;4946286;28;9610;-63
2022/06/09 02:44:38;;;;;;;;;;;;;;;26.41;41.83;93908.75;4926355;29;7231;-62
2022/06/09 02:47:18;;;;;;;;;;;;;;;26.43;42.16;93913.75;4930042;29;6994;-63
2022/06/09 02:49:57;;;;;;;;;;;;;;;26.43;41.39;93905.47;4926337;28;7434;-62
2022/06/09 02:52:44;;;;;;;;;;;;;;;26.42;41.64;93909.50;4948355;28;7000;-62
2022/06/09 02:55:19;;;;;;;;;;;;;;;26.43;41.94;93910.97;4944683;28;7361;-62
2022/06/09 02:57:46;;;;;;;;;;;;;;;26.39;42.19;93908.53;4948578;28;7501;-62
2022/06/09 03:00:44;;;;;;;;;;;;;;;26.41;41.64;93919.78;4947335;28;7308;-63
2022/06/09 03:03:55;;;;;;;;;;;;;;;26.39;42.11;93916.06;4895514;29;8604;-62
2022/06/09 03:06:32;;;;;;;;;;;;;;;26.41;41.48;93924.56;4892908;29;8389;-63
2022/06/09 03:09:15;;;;;;;;;;;;;;;26.38;41.54;93929.09;4879820;29;7524;-62
2022/06/09 03:11:42;;;;;;;;;;;;;;;26.36;41.51;93928.16;4888570;29;7702;-63
2022/06/09 03:14:10;;;;;;;;;;;;;;;26.39;41.68;93921.59;4927163;28;7231;-63
2022/06/09 03:16:36;;;;;;;;;;;;;;;26.40;41.40;93928.59;4950029;28;9391;-63
2022/06/09 03:19:05;;;;;;;;;;;;;;;26.43;41.27;93931.03;4934742;28;7570;-63
2022/06/09 03:21:31;;;;;;;;;;;;;;;26.44;42.22;93938.06;4959716;28;8697;-63
2022/06/09 03:24:02;;;;;;;;;;;;;;;26.43;41.33;93942.06;4958045;28;7242;-63
2022/06/09 03:26:29;;;;;;;;;;;;;;;26.43;41.63;93938.56;4960173;28;8766;-63
2022/06/09 03:28:55;;;;;;;;;;;;;;;26.44;41.45;93940.81;4964583;28;7270;-63
2022/06/09 03:31:21;;;;;;;;;;;;;;;26.44;41.37;93938.06;4965132;28;7255;-62
2022/06/09 03:33:53;;;;;;;;;;;;;;;26.44;41.11;93946.31;4952598;28;9020;-63
2022/06/09 03:36:20;;;;;;;;;;;;;;;26.46;41.28;93946.53;4969451;28;7079;-63
2022/06/09 03:38:48;;;;;;;;;;;;;;;26.45;41.25;93945.03;4978290;28;7253;-63
2022/06/09 03:41:14;;;;;;;;;;;;;;;26.45;41.30;93958.81;5007415;28;7087;-63
2022/06/09 03:43:51;;;;;;;;;;;;;;;26.44;41.12;93965.63;5010137;28;7057;-63
2022/06/09 03:46:31;;;;;;;;;;;;;;;26.45;41.14;93967.09;5008377;28;8227;-62
2022/06/09 03:48:57;;;;;;;;;;;;;;;26.45;41.80;93969.09;5018546;28;9221;-62
2022/06/09 03:51:26;;;;;;;;;;;;;;;26.44;41.09;93964.88;5018637;28;9396;-63
2022/06/09 03:53:54;;;;;;;;;;;;;;;26.44;41.10;93978.66;5020529;28;8227;-62
2022/06/09 03:56:22;;;;;;;;;;;;;;;26.40;41.78;93975.47;5020859;28;9708;-63
2022/06/09 03:58:48;;;;;;;;;;;;;;;26.40;41.01;93984.50;5001418;28;7680;-63
2022/06/09 04:01:31;;;;;;;;;;;;;;;26.42;41.72;93975.69;5025298;28;7167;-63
2022/06/09 04:04:00;;;;;;;;;;;;;;;26.41;41.85;93985.97;5028113;28;7187;-62
2022/06/09 04:06:28;;;;;;;;;;;;;;;26.41;41.08;93993.50;5019265;28;8682;-62
2022/06/09 04:08:55;;;;;;;;;;;;;;;26.41;41.79;93999.00;5003279;28;7137;-63
2022/06/09 04:11:28;;;;;;;;;;;;;;;26.39;41.05;93999.53;5005027;28;9028;-63
2022/06/09 04:14:02;;;;;;;;;;;;;;;26.39;41.30;94004.31;5025629;28;6964;-63
2022/06/09 04:16:35;;;;;;;;;;;;;;;26.40;41.62;94019.59;5011779;28;9468;-62
2022/06/09 04:19:07;;;;;;;;;;;;;;;26.39;41.17;94016.09;5014079;28;9763;-63
2022/06/09 04:21:35;;;;;;;;;;;;;;;26.38;41.63;94019.38;5001704;28;7397;-62
2022/06/09 04:24:03;;;;;;;;;;;;;;;26.37;41.93;94024.16;5007632;28;7066;-63
2022/06/09 04:26:43;;;;;;;;;;;;;;;26.35;41.24;94023.94;5000610;28;7058;-63
2022/06/09 04:29:38;;;;;;;;;;;;;;;26.36;41.25;94032.94;5020357;28;8767;-63
2022/06/09 04:32:04;;;;;;;;;;;;;;;26.34;41.36;94044.47;5020342;28;7184;-63
2022/06/09 04:34:30;;;;;;;;;;;;;;;26.31;41.68;94045.53;5000512;28;6984;-63
2022/06/09 04:36:56;;;;;;;;;;;;;;;26.29;40.87;94050.84;5002169;28;7683;-61
2022/06/09 04:39:23;;;;;;;;;;;;;;;26.29;41.84;94041.81;5007869;28;9091;-63
2022/06/09 04:41:59;;;;;;;;;;;;;;;26.27;41.81;94041.59;5005409;28;7470;-63
2022/06/09 04:44:32;;;;;;;;;;;;;;;26.28;41.36;94056.84;4997928;28;7171;-63
2022/06/09 04:47:10;;;;;;;;;;;;;;;26.28;41.86;94045.84;4997797;28;7639;-63
2022/06/09 04:49:44;;;;;;;;;;;;;;;26.29;41.32;94061.13;5019355;28;9074;-63
2022/06/09 04:52:16;;;;;;;;;;;;;;;26.28;41.50;94063.13;5004375;28;9074;-63
2022/06/09 04:54:56;;;;;;;;;;;;;;;26.28;41.43;94060.38;5022917;28;9384;-63
2022/06/09 04:57:23;;;;;;;;;;;;;;;26.28;41.72;94060.38;4999645;28;9103;-63
2022/06/09 04:59:50;;;;;;;;;;;;;;;26.27;41.05;94052.63;5000610;28;9133;-63
2022/06/09 05:02:29;;;;;;;;;;;;;;;26.26;41.37;94057.38;5020741;28;7234;-63
2022/06/09 05:05:10;;;;;;;;;;;;;;;26.26;41.54;94065.66;5004702;28;8277;-63
2022/06/09 05:07:37;;;;;;;;;;;;;;;26.27;41.57;94066.41;5021073;28;7172;-63
2022/06/09 05:10:05;;;;;;;;;;;;;;;26.26;41.81;94073.19;5016134;28;7257;-63
2022/06/09 05:12:34;;;;;;;;;;;;;;;26.25;41.98;94071.72;5008913;28;9057;-63
2022/06/09 05:15:08;;;;;;;;;;;;;;;26.25;41.68;94072.47;5026020;28;7601;-63
2022/06/09 05:17:34;;;;;;;;;;;;;;;26.23;41.50;94072.22;5001805;28;9103;-63
2022/06/09 05:20:02;;;;;;;;;;;;;;;26.24;41.32;94086.75;5020106;28;9633;-63
2022/06/09 05:22:39;;;;;;;;;;;;;;;26.20;41.99;94084.28;5018960;28;7187;-62
2022/06/09 05:25:06;;;;;;;;;;;;;;;26.21;41.26;94076.78;5002749;28;7231;-62
2022/06/09 05:27:34;;;;;;;;;;;;;;;26.22;41.91;94083.78;5020350;28;7537;-62
2022/06/09 05:30:13;;;;;;;;;;;;;;;26.17;41.36;94088.84;5009565;28;7267;-63
2022/06/09 05:32:40;;;;;;;;;;;;;;;26.15;42.02;94094.13;5012833;28;7258;-63
2022/06/09 05:35:09;;;;;;;;;;;;;;;26.16;41.62;94101.13;5005132;28;9016;-62
2022/06/09 05:46:24;;;;;;;;;;;;;;;26.12;42.50;94099.94;5017840;28;7258;-63
2022/06/09 05:48:57;;;;;;;;;;;;;;;26.12;41.87;94095.16;4932477;29;9395;-63
2022/06/09 05:51:38;;;;;;;;;;;;;;;26.12;42.28;94102.72;4936370;28;8755;-62
2022/06/09 05:54:04;;;;;;;;;;;;;;;26.14;41.78;94100.91;4930943;28;7410;-63
2022/06/09 05:57:05;;;;;;;;;;;;;;;26.18;41.34;94106.13;4945754;28;9585;-62
2022/06/09 05:59:31;;;;;;;;;;;;;;;26.20;42.12;94102.84;4906898;29;9300;-63
2022/06/09 06:01:58;;;;;;;;;;;;;;;26.16;41.91;94109.38;4882732;29;9064;-63
2022/06/09 06:04:28;;;;;;;;;;;;;;;26.16;42.21;94114.91;4878963;29;7030;-62
2022/06/09 06:07:12;;;;;;;;;;;;;;;26.13;41.62;94115.97;4894814;29;7402;-63
2022/06/09 06:09:49;;;;;;;;;;;;;;;26.15;42.04;94124.44;4871618;29;7432;-64
2022/06/09 06:12:44;;;;;;;;;;;;;;;26.15;41.52;94129.97;4891367;29;9107;-63
2022/06/09 06:15:29;;;;;;;;;;;;;;;26.13;41.57;94127.00;4861804;29;6866;-63
2022/06/09 06:17:55;;;;;;;;;;;;;;;26.15;42.08;94135.47;4863545;29;7027;-65
2022/06/09 06:20:22;;;;;;;;;;;;;;;26.13;42.48;94131.75;4875563;29;8948;-65
2022/06/09 06:22:57;;;;;;;;;;;;;;;26.11;42.68;94135.03;4872277;29;8831;-65
2022/06/09 06:25:28;;;;;;;;;;;;;;;26.10;41.94;94128.03;4889055;28;7833;-64
2022/06/09 06:27:54;;;;;;;;;;;;;;;26.12;42.12;94131.00;4922208;28;8045;-63
2022/06/09 06:30:21;;;;;;;;;;;;;;;26.18;41.45;94136.47;4907963;29;7474;-63
2022/06/09 06:32:50;;;;;;;;;;;;;;;26.18;42.09;94139.22;4911522;28;9810;-62
2022/06/09 06:35:16;;;;;;;;;;;;;;;26.18;41.74;94133.69;4924319;28;7371;-63
2022/06/09 06:37:46;;;;;;;;;;;;;;;26.22;42.10;94139.66;4951396;28;6997;-63
2022/06/09 06:40:21;;;;;;;;;;;;;;;26.23;41.12;94134.91;4953406;28;7668;-63
2022/06/09 06:43:00;;;;;;;;;;;;;;;26.15;41.61;94141.00;4976208;28;9447;-62
2022/06/09 06:45:35;;;;;;;;;;;;;;;26.12;41.26;94146.81;4960258;28;7492;-62
2022/06/09 06:48:06;;;;;;;;;;;;;;;26.13;41.30;94151.03;4947947;28;9321;-63
2022/06/09 06:50:37;;;;;;;;;;;;;;;26.15;41.59;94145.75;4948549;28;6982;-62
2022/06/09 06:53:09;;;;;;;;;;;;;;;26.14;41.96;94149.78;5016996;28;8253;-62
2022/06/09 06:55:38;;;;;;;;;;;;;;;26.11;41.72;94143.31;5020630;28;9134;-64
2022/06/09 06:58:05;;;;;;;;;;;;;;;26.13;41.61;94153.81;4999057;28;6920;-63
2022/06/09 07:00:34;;;;;;;;;;;;;;;26.14;41.91;94147.75;5002748;28;8132;-64
2022/06/09 07:03:00;;;;;;;;;;;;;;;26.13;41.78;94154.56;5003510;28;9273;-64
2022/06/09 07:05:28;;;;;;;;;;;;;;;26.15;41.50;94163.03;5008215;28;9545;-64
2022/06/09 07:07:56;;;;;;;;;;;;;;;26.11;41.69;94154.31;4993622;28;7313;-64
2022/06/09 07:10:26;;;;;;;;;;;;;;;26.11;41.38;94165.34;5010331;28;9089;-64
2022/06/09 07:12:56;;;;;;;;;;;;;;;26.12;41.06;94161.31;5025693;28;7346;-64
2022/06/09 07:15:51;;;;;;;;;;;;;;;26.12;40.15;94153.03;5024519;28;7001;-64
2022/06/09 07:18:17;;;;;;;;;;;;;;;26.14;41.35;94164.28;5016019;28;9060;-63
2022/06/09 07:20:43;;;;;;;;;;;;;;;26.12;40.46;94161.31;5010624;28;7620;-64
2022/06/09 07:23:13;;;;;;;;;;;;;;;26.14;40.96;94161.53;5005596;28;9288;-63
2022/06/09 07:25:48;;;;;;;;;;;;;;;26.14;40.73;94167.06;5017604;28;9157;-63
2022/06/09 07:28:19;;;;;;;;;;;;;;;26.16;41.11;94170.03;5028520;28;9128;-63
2022/06/09 07:30:49;;;;;;;;;;;;;;;26.15;39.96;94167.81;5004421;28;9074;-64
2022/06/09 07:33:16;;;;;;;;;;;;;;;26.17;40.65;94174.28;5004294;28;9284;-63
2022/06/09 07:35:44;;;;;;;;;;;;;;;26.14;40.38;94167.06;5026428;28;8033;-64
2022/06/09 07:38:11;;;;;;;;;;;;;;;26.16;40.34;94172.78;5010982;28;9310;-65
2022/06/09 07:40:42;;;;;;;;;;;;;;;26.15;40.66;94181.59;5001932;28;8931;-62
2022/06/09 07:43:11;;;;;;;;;;;;;;;26.12;40.42;94161.31;5015557;28;9336;-64
2022/06/09 07:45:41;;;;;;;;;;;;;;;26.14;40.65;94171.84;5005041;28;8807;-65
2022/06/09 07:48:09;;;;;;;;;;;;;;;26.17;40.19;94171.53;5003008;28;7166;-64
2022/06/09 07:50:35;;;;;;;;;;;;;;;26.17;40.07;94171.53;5019208;28;8740;-66
2022/06/09 07:53:04;;;;;;;;;;;;;;;26.15;40.48;94174.06;5004112;28;7120;-64
2022/06/09 07:55:33;;;;;;;;;;;;;;;26.17;40.05;94171.53;5021382;28;7490;-65
2022/06/09 07:58:02;;;;;;;;;;;;;;;26.13;39.94;94168.34;5002958;28;7238;-64
2022/06/09 08:00:28;;;;;;;;;;;;;;;26.14;41.09;94164.28;5019308;28;9292;-65
2022/06/09 08:02:55;;;;;;;;;;;;;;;26.12;39.49;94166.09;5016519;28;7137;-65
2022/06/09 08:05:26;;;;;;;;;;;;;;;26.11;40.15;94173.63;5009690;28;7269;-64
2022/06/09 08:08:00;;;;;;;;;;;;;;;26.11;40.13;94162.59;5009983;28;9485;-65
2022/06/09 08:10:29;;;;;;;;;;;;;;;26.12;40.04;94161.31;5007899;28;7124;-67
2022/06/09 08:13:09;;;;;;;;;;;;;;;26.13;39.64;94171.09;5017970;28;8937;-66
2022/06/09 08:15:35;;;;;;;;;;;;;;;26.19;40.95;94178.56;5024529;28;7402;-65
2022/06/09 08:18:04;;;;;;;;;;;;;;;26.21;39.92;94176.03;5014179;28;9041;-62
2022/06/09 08:20:33;;;;;;;;;;;;;;;26.19;40.90;94164.78;5000894;28;9435;-64
2022/06/09 08:23:04;;;;;;;;;;;;;;;26.14;40.24;94167.06;5007374;28;8729;-62
2022/06/09 08:25:33;;;;;;;;;;;;;;;26.14;40.45;94163.56;5018428;28;7269;-63
2022/06/09 08:28:04;;;;;;;;;;;;;;;26.21;41.36;94176.03;5000831;28;7227;-63
2022/06/09 08:30:34;;;;;;;;;;;;;;;26.18;41.26;94175.06;5003814;28;9021;-63
2022/06/09 08:33:01;;;;;;;;;;;;;;;26.18;40.90;94166.78;5019107;28;9324;-63
2022/06/09 08:35:44;;;;;;;;;;;;;;;26.21;41.19;94167.75;5006616;28;7081;-64
2022/06/09 08:38:11;;;;;;;;;;;;;;;26.20;40.30;94174.53;5018390;28;7281;-64
2022/06/09 08:41:19;;;;;;;;;;;;;;;26.19;41.02;94178.56;5015916;28;7161;-64
2022/06/09 08:44:16;;;;;;;;;;;;;;;26.19;41.46;94182.03;5019253;28;8614;-64
2022/06/09 08:47:11;;;;;;;;;;;;;;;26.18;40.79;94177.81;4997931;28;8491;-64
2022/06/09 08:49:50;;;;;;;;;;;;;;;26.22;41.24;94183.00;5019689;28;7236;-63
2022/06/09 08:52:34;;;;;;;;;;;;;;;26.24;41.49;94174.97;5012464;28;7465;-65
2022/06/09 08:55:16;;;;;;;;;;;;;;;26.25;41.08;94171.72;5003166;28;9390;-63
2022/06/09 08:57:45;;;;;;;;;;;;;;;26.29;41.60;94177.66;5013613;28;8876;-64
2022/06/09 09:00:16;;;;;;;;;;;;;;;26.28;40.65;94170.66;5006393;28;7468;-64
2022/06/09 09:02:59;;;;;;;;;;;;;;;26.32;41.79;94171.09;5010630;28;7670;-64
2022/06/09 09:05:56;;;;;;;;;;;;;;;26.34;41.84;94173.34;5020537;28;9311;-64
2022/06/09 09:08:25;;;;;;;;;;;;;;;26.31;40.40;94172.38;4998880;28;7712;-64
2022/06/09 09:10:51;;;;;;;;;;;;;;;26.34;41.62;94178.88;5010366;28;7015;-64
2022/06/09 09:13:30;;;;;;;;;;;;;;;26.34;40.88;94170.59;5026974;28;7072;-64
2022/06/09 09:16:04;;;;;;;;;;;;;;;26.33;41.53;94171.84;4999708;28;8874;-64
2022/06/09 09:18:38;;;;;;;;;;;;;;;26.32;41.52;94176.63;5022055;28;9205;-64
2022/06/09 09:21:07;;;;;;;;;;;;;;;26.30;41.05;94183.91;5007120;28;9038;-64
2022/06/09 09:23:46;;;;;;;;;;;;;;;26.30;40.92;94178.41;5015699;28;8780;-64
2022/06/09 09:26:33;;;;;;;;;;;;;;;26.32;40.45;94168.34;5019428;28;7418;-64
2022/06/09 09:29:12;;;;;;;;;;;;;;;26.30;41.57;94183.91;5018415;28;6992;-64
2022/06/09 09:31:59;;;;;;;;;;;;;;;26.29;40.68;94202.47;5022282;28;9012;-64
2022/06/09 09:34:32;;;;;;;;;;;;;;;26.29;41.59;94198.97;5018994;28;7272;-64
2022/06/09 09:37:18;;;;;;;;;;;;;;;26.28;41.16;94200.22;5000331;28;9565;-64
2022/06/09 09:39:51;;;;;;;;;;;;;;;26.28;41.40;94202.97;5016484;28;9155;-64
2022/06/09 09:42:24;;;;;;;;;;;;;;;26.29;41.08;94199.72;5001437;28;7206;-64
2022/06/09 09:45:09;;;;;;;;;;;;;;;26.29;40.56;94198.97;5010003;28;7753;-64
2022/06/09 09:47:57;;;;;;;;;;;;;;;26.30;41.47;94205.97;5002445;28;9098;-63
2022/06/09 09:50:41;;;;;;;;;;;;;;;26.32;41.56;94197.94;5024046;28;7562;-64
2022/06/09 09:53:23;;;;;;;;;;;;;;;26.31;41.06;94207.47;5013047;28;9377;-64
2022/06/09 09:56:41;;;;;;;;;;;;;;;26.31;40.49;94202.72;5015386;28;7395;-63
2022/06/09 09:59:24;;;;;;;;;;;;;;;26.34;41.16;94215.44;4967339;28;8742;-64
2022/06/09 10:10:27;;;;;;;;;;;;;;;26.36;40.85;94221.19;4971177;28;6999;-64
2022/06/09 10:12:55;;;;;;;;;;;;;;;26.37;40.62;94221.94;4957007;28;7045;-64
2022/06/09 10:15:26;;;;;;;;;;;;;;;26.36;40.53;94223.22;4968707;28;9922;-64
2022/06/09 10:18:16;;;;;;;;;;;;;;;26.34;40.61;94220.94;4963911;28;7207;-64
2022/06/09 10:21:10;;;;;;;;;;;;;;;26.34;41.15;94234.00;4947451;28;8994;-64
2022/06/09 10:23:50;;;;;;;;;;;;;;;26.33;40.67;94243.53;4967003;28;7296;-64
2022/06/09 10:26:27;;;;;;;;;;;;;;;26.34;40.62;94239.53;4968851;28;7130;-64
2022/06/09 10:29:14;;;;;;;;;;;;;;;26.33;40.79;94254.56;4954070;28;7306;-64
2022/06/09 10:32:24;;;;;;;;;;;;;;;26.34;40.33;94275.38;4958889;28;7046;-64
2022/06/09 10:35:11;;;;;;;;;;;;;;;26.33;40.49;94282.16;4947957;28;9422;-65
2022/06/09 10:38:10;;;;;;;;;;;;;;;26.32;40.47;94280.66;4966012;28;9403;-65
2022/06/09 10:40:54;;;;;;;;;;;;;;;26.33;40.87;94276.63;4932693;29;9062;-65
2022/06/09 10:44:05;;;;;;;;;;;;;;;26.32;40.31;94270.38;4927623;28;7446;-65
2022/06/09 10:56:35;;;;;;;;;;;;;;;26.35;40.54;94274.09;4928623;29;7581;-65
2022/06/09 10:59:11;;;;;;;;;;;;;;;26.36;41.71;94281.84;4857467;29;7529;-65
2022/06/09 11:01:39;;;;;;;;;;;;;;;26.37;41.33;94279.84;4876666;29;7273;-65
2022/06/09 11:04:14;;;;;;;;;;;;;;;26.41;40.60;94274.78;4871296;29;7264;-63
2022/06/09 11:07:18;;;;;;;;;;;;;;;26.42;41.27;94274.28;4858860;29;8717;-64
2022/06/09 11:10:15;;;;;;;;;;;;;;;26.43;40.51;94270.25;4878530;29;9207;-65
2022/06/09 11:13:22;;;;;;;;;;;;;;;26.40;40.90;94276.06;4872315;29;7054;-63
2022/06/09 11:15:59;;;;;;;;;;;;;;;26.41;40.76;94274.78;4868274;29;7487;-64
2022/06/09 11:18:43;;;;;;;;;;;;;;;26.44;40.36;94279.25;4854678;29;7341;-64
2022/06/09 11:21:27;;;;;;;;;;;;;;;26.45;40.25;94283.50;4871620;29;7665;-64
2022/06/09 11:24:28;;;;;;;;;;;;;;;26.47;40.16;94283.75;4902373;28;7512;-64
2022/06/09 11:27:35;;;;;;;;;;;;;;;26.51;40.27;94284.19;4947227;28;7292;-64
2022/06/09 11:30:34;;;;;;;;;;;;;;;26.50;41.02;94277.19;4932733;28;7271;-64
2022/06/09 11:33:22;;;;;;;;;;;;;;;26.51;41.10;94286.97;4974717;28;9255;-64
2022/06/09 11:36:01;;;;;;;;;;;;;;;26.54;41.11;94277.63;5021924;28;6979;-64
2022/06/09 11:39:24;;;;;;;;;;;;;;;26.50;40.36;94279.94;5027155;28;7795;-64
2022/06/09 11:42:12;;;;;;;;;;;;;;;26.48;41.14;94276.97;5007561;28;7248;-64
2022/06/09 11:44:48;;;;;;;;;;;;;;;26.47;41.50;94278.25;5003082;28;9133;-64
2022/06/09 11:47:32;;;;;;;;;;;;;;;26.47;40.48;94278.97;5025281;28;7865;-64
2022/06/09 11:50:08;;;;;;;;;;;;;;;26.45;41.58;94272.47;5005121;28;8158;-64
2022/06/09 11:52:47;;;;;;;;;;;;;;;26.43;41.36;94278.50;5011720;28;7584;-64
2022/06/09 11:58:34;;;;;;;;;;;;;;;26.49;41.62;94290.22;4986142;28;7359;-64
2022/06/09 12:01:29;;;;;;;;;;;;;;;26.50;41.09;94300.00;4911347;29;9606;-64
2022/06/09 12:04:10;;;;;;;;;;;;;;;26.46;40.09;94318.09;4918213;29;7173;-64
2022/06/09 12:07:14;;;;;;;;;;;;;;;26.44;39.77;94320.63;4893270;29;8847;-64
2022/06/09 12:10:29;;;;;;;;;;;;;;;26.41;40.27;94329.94;4913585;29;8151;-66
2022/06/09 12:13:25;;;;;;;;;;;;;;;26.39;39.80;94335.97;4876297;29;9278;-64
2022/06/09 12:15:55;;;;;;;;;;;;;;;26.35;40.04;94324.50;4837560;29;7372;-64
2022/06/09 12:18:27;;;;;;;;;;;;;;;26.33;39.72;94315.22;4836139;29;7237;-64
2022/06/09 12:20:54;;;;;;;;;;;;;;;26.31;40.80;94301.22;4832897;29;7612;-64
2022/06/09 12:23:25;;;;;;;;;;;;;;;26.31;40.13;94303.97;4838720;29;9273;-64
2022/06/09 12:26:09;;;;;;;;;;;;;;;26.31;40.66;94298.47;4842977;29;9384;-63
2022/06/09 12:28:58;;;;;;;;;;;;;;;26.34;40.72;94306.44;4843190;29;8793;-63
2022/06/09 12:31:30;;;;;;;;;;;;;;;26.35;40.02;94298.91;4821624;29;7232;-63
2022/06/09 12:34:04;;;;;;;;;;;;;;;26.40;40.10;94295.34;4837438;29;7325;-63
2022/06/09 12:36:41;;;;;;;;;;;;;;;26.44;40.94;94295.81;4819715;29;7269;-64
2022/06/09 12:39:23;;;;;;;;;;;;;;;26.48;40.23;94296.25;4861307;29;9375;-63
2022/06/09 12:42:05;;;;;;;;;;;;;;;26.49;40.16;94306.78;4866706;29;7291;-63
2022/06/09 12:45:06;;;;;;;;;;;;;;;26.52;40.88;94299.47;4869632;29;7071;-64
2022/06/09 12:47:34;;;;;;;;;;;;;;;26.56;41.11;94305.44;4881660;29;7395;-64
2022/06/09 12:50:29;;;;;;;;;;;;;;;26.57;41.08;94306.94;4872787;29;7278;-64
2022/06/09 12:52:57;;;;;;;;;;;;;;;26.59;41.67;94312.69;4868132;29;7189;-63
2022/06/09 12:55:35;;;;;;;;;;;;;;;26.58;41.61;94302.91;4909689;29;9469;-63
2022/06/09 12:58:10;;;;;;;;;;;;;;;26.63;41.14;94304.88;4895340;29;7029;-63
2022/06/09 13:00:46;;;;;;;;;;;;;;;26.64;41.60;94315.38;4912223;29;7064;-63
2022/06/09 13:03:34;;;;;;;;;;;;;;;26.66;40.96;94312.88;4911266;29;6987;-64
2022/06/09 13:06:23;;;;;;;;;;;;;;;26.66;40.77;94320.38;4892999;29;9110;-63
2022/06/09 13:09:27;;;;;;;;;;;;;;;26.67;40.55;94310.81;4913654;29;7460;-64
2022/06/09 13:14:47;;;;;;;;;;;;;;;26.65;40.54;94302.31;4819590;29;7442;-64
2022/06/09 13:17:17;;;;;;;;;;;;;;;26.65;40.22;94310.59;4816701;29;7260;-64
2022/06/09 13:20:02;;;;;;;;;;;;;;;26.61;41.11;94308.16;4807039;29;6987;-64
2022/06/09 13:22:47;;;;;;;;;;;;;;;26.59;40.53;94310.69;4823284;29;7266;-63
2022/06/09 13:25:20;;;;;;;;;;;;;;;26.59;40.42;94320.97;4824643;29;9078;-64
2022/06/09 13:27:50;;;;;;;;;;;;;;;26.60;40.24;94333.50;4843868;29;9022;-64
2022/06/09 13:30:39;;;;;;;;;;;;;;;26.58;40.31;94341.53;4875562;29;7377;-64
2022/06/09 13:33:28;;;;;;;;;;;;;;;26.60;40.12;94372.13;4896076;29;9109;-63
2022/06/09 13:36:21;;;;;;;;;;;;;;;26.62;40.48;94408.22;4907095;29;7231;-63
2022/06/09 13:38:48;;;;;;;;;;;;;;;26.61;41.14;94403.94;4896093;29;9321;-64
2022/06/09 13:41:22;;;;;;;;;;;;;;;26.60;40.53;94408.00;4907287;29;9014;-64
2022/06/09 13:44:00;;;;;;;;;;;;;;;26.56;41.40;94422.06;4891665;29;9096;-64
2022/06/09 13:46:35;;;;;;;;;;;;;;;26.53;41.38;94427.88;4891384;29;9132;-64
2022/06/09 13:49:19;;;;;;;;;;;;;;;26.54;40.64;94432.09;4981713;28;7342;-64
2022/06/09 13:52:04;;;;;;;;;;;;;;;26.56;41.21;94426.81;5006463;28;7175;-64
2022/06/09 13:54:41;;;;;;;;;;;;;;;26.57;40.38;94428.31;5003952;28;7420;-64
2022/06/09 13:57:17;;;;;;;;;;;;;;;26.53;40.14;94428.63;5003597;28;9824;-64
2022/06/09 13:59:43;;;;;;;;;;;;;;;26.51;40.88;94431.13;4999973;28;7015;-64
2022/06/09 14:02:17;;;;;;;;;;;;;;;26.52;40.65;94442.91;5016023;28;8776;-64
2022/06/09 14:04:54;;;;;;;;;;;;;;;26.51;40.07;94444.19;5009080;28;8768;-64
2022/06/09 14:07:25;;;;;;;;;;;;;;;26.51;39.60;94444.91;5007764;28;8396;-64
2022/06/09 14:09:55;;;;;;;;;;;;;;;26.51;40.12;94452.47;5014869;28;7283;-64
2022/06/09 14:12:28;;;;;;;;;;;;;;;26.49;39.82;94458.47;5007993;28;7284;-64
2022/06/09 14:14:54;;;;;;;;;;;;;;;26.48;39.84;94451.47;5026132;28;9244;-64
2022/06/09 14:17:25;;;;;;;;;;;;;;;26.48;40.15;94459.00;5009689;28;9434;-64
2022/06/09 14:19:52;;;;;;;;;;;;;;;26.48;40.10;94459.00;5020251;28;6961;-64
2022/06/09 14:22:19;;;;;;;;;;;;;;;26.48;39.94;94464.50;5014051;28;7653;-65
2022/06/09 14:24:57;;;;;;;;;;;;;;;26.47;40.46;94461.00;5004249;28;8978;-65
2022/06/09 14:27:29;;;;;;;;;;;;;;;26.46;39.97;94456.75;5024263;28;9064;-64